sensor_id;sensor_type;location;lat;lon;timestamp;temperature;humidity
16814;DHT22;8524;57.650;11.926;2024-01-06T00:02:01;-10.40;99.90
16814;DHT22;8524;57.650;11.926;2024-01-06T00:04:28;-10.30;99.90
16814;DHT22;8524;57.650;11.926;2024-01-06T00:06:55;-10.30;99.90
16814;DHT22;8524;57.650;11.926;2024-01-06T00:09:22;-10.30;99.90
16814;DHT22;8524;57.650;11.926;2024-01-06T00:11:49;-10.40;99.90
16814;DHT22;8524;57.650;11.926;2024-01-06T00:14:17;-10.30;99.90
16814;DHT22;8524;57.650;11.926;2024-01-06T00:16:44;-10.30;99.90
16814;DHT22;8524;57.650;11.926;2024-01-06T00:19:11;-10.30;99.90
16814;DHT22;8524;57.650;11.926;2024-01-06T00:21:37;-10.30;99.90
16814;DHT22;8524;57.650;11.926;2024-01-06T00:24:05;-10.30;99.90
16814;DHT22;8524;57.650;11.926;2024-01-06T00:26:32;-10.10;99.90
16814;DHT22;8524;57.650;11.926;2024-01-06T00:28:58;-10.20;99.90
16814;DHT22;8524;57.650;11.926;2024-01-06T00:31:27;-10.20;99.90
16814;DHT22;8524;57.650;11.926;2024-01-06T00:33:53;-10.30;99.90
16814;DHT22;8524;57.650;11.926;2024-01-06T00:36:20;-10.30;99.90
16814;DHT22;8524;57.650;11.926;2024-01-06T00:38:47;-10.30;99.90
16814;DHT22;8524;57.650;11.926;2024-01-06T00:41:14;-10.20;99.90
16814;DHT22;8524;57.650;11.926;2024-01-06T00:43:41;-10.30;99.90
16814;DHT22;8524;57.650;11.926;2024-01-06T00:46:08;-10.30;99.90
16814;DHT22;8524;57.650;11.926;2024-01-06T00:48:36;-10.20;99.90
16814;DHT22;8524;57.650;11.926;2024-01-06T00:51:03;-10.10;99.90
16814;DHT22;8524;57.650;11.926;2024-01-06T00:53:30;-10.20;99.90
16814;DHT22;8524;57.650;11.926;2024-01-06T00:55:57;-10.10;99.90
16814;DHT22;8524;57.650;11.926;2024-01-06T00:58:23;-10.10;99.90
16814;DHT22;8524;57.650;11.926;2024-01-06T01:00:50;-10.00;99.90
16814;DHT22;8524;57.650;11.926;2024-01-06T01:03:17;-10.10;99.90
16814;DHT22;8524;57.650;11.926;2024-01-06T01:05:45;-10.10;99.90
16814;DHT22;8524;57.650;11.926;2024-01-06T01:08:12;-10.00;99.90
16814;DHT22;8524;57.650;11.926;2024-01-06T01:10:39;-10.00;99.90
16814;DHT22;8524;57.650;11.926;2024-01-06T01:13:06;-10.00;99.90
16814;DHT22;8524;57.650;11.926;2024-01-06T01:15:33;-10.00;99.90
16814;DHT22;8524;57.650;11.926;2024-01-06T01:18:00;-10.00;99.90
16814;DHT22;8524;57.650;11.926;2024-01-06T01:20:27;-10.00;99.90
16814;DHT22;8524;57.650;11.926;2024-01-06T01:22:55;-9.90;99.90
16814;DHT22;8524;57.650;11.926;2024-01-06T01:25:22;-9.90;99.90
16814;DHT22;8524;57.650;11.926;2024-01-06T01:27:49;-10.00;99.90
16814;DHT22;8524;57.650;11.926;2024-01-06T01:30:16;-10.00;99.90
16814;DHT22;8524;57.650;11.926;2024-01-06T01:32:42;-10.00;99.90
16814;DHT22;8524;57.650;11.926;2024-01-06T01:35:09;-9.90;99.90
16814;DHT22;8524;57.650;11.926;2024-01-06T01:37:36;-9.90;99.90
16814;DHT22;8524;57.650;11.926;2024-01-06T01:40:06;-9.90;99.90
16814;DHT22;8524;57.650;11.926;2024-01-06T01:42:33;-9.80;99.90
16814;DHT22;8524;57.650;11.926;2024-01-06T01:45:00;-9.90;99.90
16814;DHT22;8524;57.650;11.926;2024-01-06T01:47:27;-10.00;99.90
16814;DHT22;8524;57.650;11.926;2024-01-06T01:49:55;-10.00;99.90
16814;DHT22;8524;57.650;11.926;2024-01-06T01:52:22;-10.00;99.90
16814;DHT22;8524;57.650;11.926;2024-01-06T01:54:49;-10.00;99.90
16814;DHT22;8524;57.650;11.926;2024-01-06T01:57:17;-10.10;99.90
16814;DHT22;8524;57.650;11.926;2024-01-06T01:59:45;-10.10;99.90
16814;DHT22;8524;57.650;11.926;2024-01-06T02:02:12;-10.10;99.90
16814;DHT22;8524;57.650;11.926;2024-01-06T02:04:39;-10.20;99.90
16814;DHT22;8524;57.650;11.926;2024-01-06T02:07:06;-10.10;99.90
16814;DHT22;8524;57.650;11.926;2024-01-06T02:09:32;-10.10;99.90
16814;DHT22;8524;57.650;11.926;2024-01-06T02:11:59;-10.20;99.90
16814;DHT22;8524;57.650;11.926;2024-01-06T02:14:28;-10.30;99.90
16814;DHT22;8524;57.650;11.926;2024-01-06T02:16:54;-10.30;99.90
16814;DHT22;8524;57.650;11.926;2024-01-06T02:19:21;-10.30;99.90
16814;DHT22;8524;57.650;11.926;2024-01-06T02:21:51;-10.20;99.90
16814;DHT22;8524;57.650;11.926;2024-01-06T02:24:18;-10.30;99.90
16814;DHT22;8524;57.650;11.926;2024-01-06T02:26:45;-10.40;99.90
16814;DHT22;8524;57.650;11.926;2024-01-06T02:29:12;-10.40;99.90
16814;DHT22;8524;57.650;11.926;2024-01-06T02:31:39;-10.30;99.90
16814;DHT22;8524;57.650;11.926;2024-01-06T02:34:06;-10.30;99.90
16814;DHT22;8524;57.650;11.926;2024-01-06T02:36:33;-10.30;99.90
16814;DHT22;8524;57.650;11.926;2024-01-06T02:39:01;-10.40;99.90
16814;DHT22;8524;57.650;11.926;2024-01-06T02:41:28;-10.40;99.90
16814;DHT22;8524;57.650;11.926;2024-01-06T02:43:55;-10.30;99.90
16814;DHT22;8524;57.650;11.926;2024-01-06T02:46:22;-10.30;99.90
16814;DHT22;8524;57.650;11.926;2024-01-06T02:48:49;-10.30;99.90
16814;DHT22;8524;57.650;11.926;2024-01-06T02:51:15;-10.20;99.90
16814;DHT22;8524;57.650;11.926;2024-01-06T02:53:42;-10.20;99.90
16814;DHT22;8524;57.650;11.926;2024-01-06T02:56:11;-10.30;99.90
16814;DHT22;8524;57.650;11.926;2024-01-06T02:58:38;-10.30;99.90
16814;DHT22;8524;57.650;11.926;2024-01-06T03:01:05;-10.30;99.90
16814;DHT22;8524;57.650;11.926;2024-01-06T03:03:32;-10.40;99.90
16814;DHT22;8524;57.650;11.926;2024-01-06T03:05:59;-10.40;99.90
16814;DHT22;8524;57.650;11.926;2024-01-06T03:08:25;-10.40;99.90
16814;DHT22;8524;57.650;11.926;2024-01-06T03:10:52;-10.30;99.90
16814;DHT22;8524;57.650;11.926;2024-01-06T03:13:20;-10.30;99.90
16814;DHT22;8524;57.650;11.926;2024-01-06T03:15:47;-10.40;99.90
16814;DHT22;8524;57.650;11.926;2024-01-06T03:18:14;-10.30;99.90
16814;DHT22;8524;57.650;11.926;2024-01-06T03:20:41;-10.30;99.90
16814;DHT22;8524;57.650;11.926;2024-01-06T03:23:08;-10.40;99.90
16814;DHT22;8524;57.650;11.926;2024-01-06T03:25:35;-10.40;99.90
16814;DHT22;8524;57.650;11.926;2024-01-06T03:28:02;-10.40;99.90
16814;DHT22;8524;57.650;11.926;2024-01-06T03:30:30;-10.40;99.90
16814;DHT22;8524;57.650;11.926;2024-01-06T03:32:57;-10.40;99.90
16814;DHT22;8524;57.650;11.926;2024-01-06T03:35:24;-10.50;99.90
16814;DHT22;8524;57.650;11.926;2024-01-06T03:37:50;-10.40;99.90
16814;DHT22;8524;57.650;11.926;2024-01-06T03:40:17;-10.50;99.90
16814;DHT22;8524;57.650;11.926;2024-01-06T03:42:44;-10.50;99.90
16814;DHT22;8524;57.650;11.926;2024-01-06T03:45:11;-10.50;99.90
16814;DHT22;8524;57.650;11.926;2024-01-06T03:47:39;-10.50;99.90
16814;DHT22;8524;57.650;11.926;2024-01-06T03:50:06;-10.50;99.90
16814;DHT22;8524;57.650;11.926;2024-01-06T03:52:33;-10.60;99.90
16814;DHT22;8524;57.650;11.926;2024-01-06T03:55:00;-10.60;99.90
16814;DHT22;8524;57.650;11.926;2024-01-06T03:57:28;-10.70;99.90
16814;DHT22;8524;57.650;11.926;2024-01-06T03:59:55;-10.60;99.90
16814;DHT22;8524;57.650;11.926;2024-01-06T04:02:21;-10.60;99.90
16814;DHT22;8524;57.650;11.926;2024-01-06T04:04:50;-10.70;99.90
16814;DHT22;8524;57.650;11.926;2024-01-06T04:07:17;-10.60;99.90
16814;DHT22;8524;57.650;11.926;2024-01-06T04:09:44;-10.70;99.90
16814;DHT22;8524;57.650;11.926;2024-01-06T04:12:12;-10.80;99.90
16814;DHT22;8524;57.650;11.926;2024-01-06T04:14:39;-10.80;99.90
16814;DHT22;8524;57.650;11.926;2024-01-06T04:17:06;-10.80;99.90
16814;DHT22;8524;57.650;11.926;2024-01-06T04:19:32;-10.80;99.90
16814;DHT22;8524;57.650;11.926;2024-01-06T04:22:01;-10.80;99.90
16814;DHT22;8524;57.650;11.926;2024-01-06T04:24:27;-10.80;99.90
16814;DHT22;8524;57.650;11.926;2024-01-06T04:26:54;-10.80;99.90
16814;DHT22;8524;57.650;11.926;2024-01-06T04:29:21;-10.80;99.90
16814;DHT22;8524;57.650;11.926;2024-01-06T04:31:48;-10.80;99.90
16814;DHT22;8524;57.650;11.926;2024-01-06T04:34:15;-10.90;99.90
16814;DHT22;8524;57.650;11.926;2024-01-06T04:36:42;-10.90;99.90
16814;DHT22;8524;57.650;11.926;2024-01-06T04:39:10;-10.90;99.90
16814;DHT22;8524;57.650;11.926;2024-01-06T04:41:38;-10.80;99.90
16814;DHT22;8524;57.650;11.926;2024-01-06T04:44:05;-10.80;99.90
16814;DHT22;8524;57.650;11.926;2024-01-06T04:46:32;-10.80;99.90
16814;DHT22;8524;57.650;11.926;2024-01-06T04:48:59;-10.80;99.90
16814;DHT22;8524;57.650;11.926;2024-01-06T04:51:26;-10.90;99.90
16814;DHT22;8524;57.650;11.926;2024-01-06T04:53:53;-10.90;99.90
16814;DHT22;8524;57.650;11.926;2024-01-06T04:56:21;-10.90;99.90
16814;DHT22;8524;57.650;11.926;2024-01-06T04:58:48;-10.90;99.90
16814;DHT22;8524;57.650;11.926;2024-01-06T05:01:15;-10.90;99.90
16814;DHT22;8524;57.650;11.926;2024-01-06T05:03:42;-10.90;99.90
16814;DHT22;8524;57.650;11.926;2024-01-06T05:06:08;-11.10;99.90
16814;DHT22;8524;57.650;11.926;2024-01-06T05:08:35;-11.20;99.90
16814;DHT22;8524;57.650;11.926;2024-01-06T05:11:07;-11.30;99.90
16814;DHT22;8524;57.650;11.926;2024-01-06T05:13:35;-11.30;99.90
16814;DHT22;8524;57.650;11.926;2024-01-06T05:16:02;-11.40;99.90
16814;DHT22;8524;57.650;11.926;2024-01-06T05:18:29;-11.40;99.90
16814;DHT22;8524;57.650;11.926;2024-01-06T05:20:56;-11.50;99.90
16814;DHT22;8524;57.650;11.926;2024-01-06T05:23:23;-11.50;99.90
16814;DHT22;8524;57.650;11.926;2024-01-06T05:25:50;-11.60;99.90
16814;DHT22;8524;57.650;11.926;2024-01-06T05:28:17;-11.60;99.90
16814;DHT22;8524;57.650;11.926;2024-01-06T05:30:45;-11.60;99.90
16814;DHT22;8524;57.650;11.926;2024-01-06T05:33:12;-11.60;99.90
16814;DHT22;8524;57.650;11.926;2024-01-06T05:35:40;-11.60;99.90
16814;DHT22;8524;57.650;11.926;2024-01-06T05:38:07;-11.70;99.90
16814;DHT22;8524;57.650;11.926;2024-01-06T05:40:34;-11.70;99.90
16814;DHT22;8524;57.650;11.926;2024-01-06T05:43:01;-11.80;99.90
16814;DHT22;8524;57.650;11.926;2024-01-06T05:45:28;-11.90;99.90
16814;DHT22;8524;57.650;11.926;2024-01-06T05:47:56;-12.00;99.90
16814;DHT22;8524;57.650;11.926;2024-01-06T05:50:23;-12.00;99.90
16814;DHT22;8524;57.650;11.926;2024-01-06T05:52:49;-12.10;99.90
16814;DHT22;8524;57.650;11.926;2024-01-06T05:55:18;-12.20;99.90
16814;DHT22;8524;57.650;11.926;2024-01-06T05:57:45;-12.20;99.90
16814;DHT22;8524;57.650;11.926;2024-01-06T06:00:13;-12.30;99.90
16814;DHT22;8524;57.650;11.926;2024-01-06T06:02:42;-12.30;99.90
16814;DHT22;8524;57.650;11.926;2024-01-06T06:05:10;-12.30;99.90
16814;DHT22;8524;57.650;11.926;2024-01-06T06:07:37;-12.30;99.90
16814;DHT22;8524;57.650;11.926;2024-01-06T06:10:07;-12.40;99.90
16814;DHT22;8524;57.650;11.926;2024-01-06T06:12:34;-12.50;99.90
16814;DHT22;8524;57.650;11.926;2024-01-06T06:15:01;-12.50;99.90
16814;DHT22;8524;57.650;11.926;2024-01-06T06:17:29;-12.50;99.90
16814;DHT22;8524;57.650;11.926;2024-01-06T06:19:56;-12.50;99.90
16814;DHT22;8524;57.650;11.926;2024-01-06T06:22:25;-12.50;99.90
16814;DHT22;8524;57.650;11.926;2024-01-06T06:24:55;-12.60;99.90
16814;DHT22;8524;57.650;11.926;2024-01-06T06:27:22;-12.70;99.90
16814;DHT22;8524;57.650;11.926;2024-01-06T06:29:49;-12.70;99.90
16814;DHT22;8524;57.650;11.926;2024-01-06T06:32:16;-12.70;99.90
16814;DHT22;8524;57.650;11.926;2024-01-06T06:34:43;-12.80;99.90
16814;DHT22;8524;57.650;11.926;2024-01-06T06:37:10;-12.80;99.90
16814;DHT22;8524;57.650;11.926;2024-01-06T06:39:38;-12.80;99.90
16814;DHT22;8524;57.650;11.926;2024-01-06T06:42:05;-12.90;99.90
16814;DHT22;8524;57.650;11.926;2024-01-06T06:44:32;-12.90;99.90
16814;DHT22;8524;57.650;11.926;2024-01-06T06:46:59;-13.00;99.90
16814;DHT22;8524;57.650;11.926;2024-01-06T06:49:25;-13.10;99.90
16814;DHT22;8524;57.650;11.926;2024-01-06T06:51:52;-13.10;99.90
16814;DHT22;8524;57.650;11.926;2024-01-06T06:54:21;-13.10;99.90
16814;DHT22;8524;57.650;11.926;2024-01-06T06:56:49;-13.10;99.90
16814;DHT22;8524;57.650;11.926;2024-01-06T06:59:16;-13.20;99.90
16814;DHT22;8524;57.650;11.926;2024-01-06T07:01:43;-13.20;99.90
16814;DHT22;8524;57.650;11.926;2024-01-06T07:04:10;-13.20;99.90
16814;DHT22;8524;57.650;11.926;2024-01-06T07:06:37;-13.20;99.90
16814;DHT22;8524;57.650;11.926;2024-01-06T07:09:04;-13.20;99.90
16814;DHT22;8524;57.650;11.926;2024-01-06T07:11:31;-13.20;99.90
16814;DHT22;8524;57.650;11.926;2024-01-06T07:13:59;-13.30;99.90
16814;DHT22;8524;57.650;11.926;2024-01-06T07:16:26;-13.30;99.90
16814;DHT22;8524;57.650;11.926;2024-01-06T07:18:53;-13.30;99.90
16814;DHT22;8524;57.650;11.926;2024-01-06T07:21:20;-13.30;99.90
16814;DHT22;8524;57.650;11.926;2024-01-06T07:23:48;-13.30;99.90
16814;DHT22;8524;57.650;11.926;2024-01-06T07:26:15;-13.40;99.90
16814;DHT22;8524;57.650;11.926;2024-01-06T07:28:43;-13.40;99.90
16814;DHT22;8524;57.650;11.926;2024-01-06T07:31:11;-13.40;99.90
16814;DHT22;8524;57.650;11.926;2024-01-06T07:33:38;-13.50;99.90
16814;DHT22;8524;57.650;11.926;2024-01-06T07:36:05;-13.50;99.90
16814;DHT22;8524;57.650;11.926;2024-01-06T07:38:32;-13.60;99.90
16814;DHT22;8524;57.650;11.926;2024-01-06T07:40:59;-13.60;99.90
16814;DHT22;8524;57.650;11.926;2024-01-06T07:43:26;-13.70;99.90
16814;DHT22;8524;57.650;11.926;2024-01-06T07:45:53;-13.60;99.90
16814;DHT22;8524;57.650;11.926;2024-01-06T07:48:22;-13.70;99.90
16814;DHT22;8524;57.650;11.926;2024-01-06T07:50:49;-13.80;99.90
16814;DHT22;8524;57.650;11.926;2024-01-06T07:53:16;-13.80;99.90
16814;DHT22;8524;57.650;11.926;2024-01-06T07:55:43;-13.80;99.90
16814;DHT22;8524;57.650;11.926;2024-01-06T07:58:09;-13.80;99.90
16814;DHT22;8524;57.650;11.926;2024-01-06T08:00:37;-13.70;99.90
16814;DHT22;8524;57.650;11.926;2024-01-06T08:03:04;-13.70;99.90
16814;DHT22;8524;57.650;11.926;2024-01-06T08:05:33;-13.70;99.90
16814;DHT22;8524;57.650;11.926;2024-01-06T08:07:59;-13.60;99.90
16814;DHT22;8524;57.650;11.926;2024-01-06T08:10:26;-13.60;99.90
16814;DHT22;8524;57.650;11.926;2024-01-06T08:12:53;-13.50;99.90
16814;DHT22;8524;57.650;11.926;2024-01-06T08:15:20;-13.50;99.90
16814;DHT22;8524;57.650;11.926;2024-01-06T08:17:47;-13.50;99.90
16814;DHT22;8524;57.650;11.926;2024-01-06T08:20:14;-13.50;99.90
16814;DHT22;8524;57.650;11.926;2024-01-06T08:22:42;-13.50;99.90
16814;DHT22;8524;57.650;11.926;2024-01-06T08:25:09;-13.40;99.90
16814;DHT22;8524;57.650;11.926;2024-01-06T08:27:36;-13.40;99.90
16814;DHT22;8524;57.650;11.926;2024-01-06T08:30:04;-13.40;99.90
16814;DHT22;8524;57.650;11.926;2024-01-06T08:32:31;-13.40;99.90
16814;DHT22;8524;57.650;11.926;2024-01-06T08:34:58;-13.30;99.90
16814;DHT22;8524;57.650;11.926;2024-01-06T08:37:25;-13.30;99.90
16814;DHT22;8524;57.650;11.926;2024-01-06T08:39:53;-13.20;99.90
16814;DHT22;8524;57.650;11.926;2024-01-06T08:42:20;-13.20;99.90
16814;DHT22;8524;57.650;11.926;2024-01-06T08:44:47;-13.20;99.90
16814;DHT22;8524;57.650;11.926;2024-01-06T08:47:14;-13.20;99.90
16814;DHT22;8524;57.650;11.926;2024-01-06T08:49:41;-13.10;99.90
16814;DHT22;8524;57.650;11.926;2024-01-06T08:52:08;-13.00;99.90
16814;DHT22;8524;57.650;11.926;2024-01-06T08:54:35;-12.90;99.90
16814;DHT22;8524;57.650;11.926;2024-01-06T08:57:03;-12.80;99.90
16814;DHT22;8524;57.650;11.926;2024-01-06T08:59:30;-12.70;99.90
16814;DHT22;8524;57.650;11.926;2024-01-06T09:01:57;-12.50;99.90
16814;DHT22;8524;57.650;11.926;2024-01-06T09:04:24;-12.40;99.90
16814;DHT22;8524;57.650;11.926;2024-01-06T09:06:51;-12.20;99.90
16814;DHT22;8524;57.650;11.926;2024-01-06T09:09:17;-12.00;99.90
16814;DHT22;8524;57.650;11.926;2024-01-06T09:11:44;-11.90;99.90
16814;DHT22;8524;57.650;11.926;2024-01-06T09:14:13;-11.80;99.90
16814;DHT22;8524;57.650;11.926;2024-01-06T09:16:40;-11.70;99.90
16814;DHT22;8524;57.650;11.926;2024-01-06T09:19:07;-11.70;99.90
16814;DHT22;8524;57.650;11.926;2024-01-06T09:21:34;-11.70;99.90
16814;DHT22;8524;57.650;11.926;2024-01-06T09:24:01;-11.60;99.90
16814;DHT22;8524;57.650;11.926;2024-01-06T09:26:31;-11.50;99.90
16814;DHT22;8524;57.650;11.926;2024-01-06T09:28:59;-11.50;99.90
16814;DHT22;8524;57.650;11.926;2024-01-06T09:31:27;-11.40;99.90
16814;DHT22;8524;57.650;11.926;2024-01-06T09:33:54;-11.30;99.90
16814;DHT22;8524;57.650;11.926;2024-01-06T09:36:21;-11.30;99.90
16814;DHT22;8524;57.650;11.926;2024-01-06T09:38:48;-11.20;99.90
16814;DHT22;8524;57.650;11.926;2024-01-06T09:41:14;-11.20;99.90
16814;DHT22;8524;57.650;11.926;2024-01-06T09:43:41;-11.10;99.90
16814;DHT22;8524;57.650;11.926;2024-01-06T09:46:15;-11.00;99.90
16814;DHT22;8524;57.650;11.926;2024-01-06T09:48:45;-11.00;99.90
16814;DHT22;8524;57.650;11.926;2024-01-06T09:51:13;-10.90;99.90
16814;DHT22;8524;57.650;11.926;2024-01-06T09:53:44;-10.90;99.90
16814;DHT22;8524;57.650;11.926;2024-01-06T09:56:15;-10.80;99.90
16814;DHT22;8524;57.650;11.926;2024-01-06T09:58:42;-10.80;99.90
16814;DHT22;8524;57.650;11.926;2024-01-06T10:01:10;-10.70;99.90
16814;DHT22;8524;57.650;11.926;2024-01-06T10:03:38;-10.60;99.90
16814;DHT22;8524;57.650;11.926;2024-01-06T10:06:06;-10.40;99.90
16814;DHT22;8524;57.650;11.926;2024-01-06T10:08:35;-10.30;99.90
16814;DHT22;8524;57.650;11.926;2024-01-06T10:11:02;-10.20;99.90
16814;DHT22;8524;57.650;11.926;2024-01-06T10:13:29;-10.00;99.90
16814;DHT22;8524;57.650;11.926;2024-01-06T10:15:56;-9.90;99.90
16814;DHT22;8524;57.650;11.926;2024-01-06T10:18:25;-9.80;99.90
16814;DHT22;8524;57.650;11.926;2024-01-06T10:20:52;-9.60;99.90
16814;DHT22;8524;57.650;11.926;2024-01-06T10:23:22;-9.60;99.90
16814;DHT22;8524;57.650;11.926;2024-01-06T10:25:52;-9.50;99.90
16814;DHT22;8524;57.650;11.926;2024-01-06T10:28:20;-9.50;99.90
16814;DHT22;8524;57.650;11.926;2024-01-06T10:30:47;-9.40;99.90
16814;DHT22;8524;57.650;11.926;2024-01-06T10:33:14;-9.30;99.90
16814;DHT22;8524;57.650;11.926;2024-01-06T10:35:41;-9.30;99.90
16814;DHT22;8524;57.650;11.926;2024-01-06T10:38:11;-9.10;99.90
16814;DHT22;8524;57.650;11.926;2024-01-06T10:40:39;-9.10;99.90
16814;DHT22;8524;57.650;11.926;2024-01-06T10:43:07;-9.00;99.90
16814;DHT22;8524;57.650;11.926;2024-01-06T10:45:35;-9.00;99.90
16814;DHT22;8524;57.650;11.926;2024-01-06T10:48:05;-8.90;99.90
16814;DHT22;8524;57.650;11.926;2024-01-06T10:50:32;-8.60;99.90
16814;DHT22;8524;57.650;11.926;2024-01-06T10:53:00;-8.60;99.90
16814;DHT22;8524;57.650;11.926;2024-01-06T10:55:29;-8.60;99.90
16814;DHT22;8524;57.650;11.926;2024-01-06T10:57:58;-8.50;99.90
16814;DHT22;8524;57.650;11.926;2024-01-06T11:00:26;-8.50;99.90
16814;DHT22;8524;57.650;11.926;2024-01-06T11:02:53;-8.40;99.90
16814;DHT22;8524;57.650;11.926;2024-01-06T11:05:21;-8.40;99.90
16814;DHT22;8524;57.650;11.926;2024-01-06T11:07:49;-8.30;99.90
16814;DHT22;8524;57.650;11.926;2024-01-06T11:10:18;-8.20;99.90
16814;DHT22;8524;57.650;11.926;2024-01-06T11:12:45;-8.20;99.90
16814;DHT22;8524;57.650;11.926;2024-01-06T11:15:47;-8.00;99.90
16814;DHT22;8524;57.650;11.926;2024-01-06T11:18:31;-8.10;99.90
16814;DHT22;8524;57.650;11.926;2024-01-06T11:21:19;-8.00;99.90
16814;DHT22;8524;57.650;11.926;2024-01-06T11:24:20;-7.90;99.90
16814;DHT22;8524;57.650;11.926;2024-01-06T11:26:50;-7.80;99.90
16814;DHT22;8524;57.650;11.926;2024-01-06T11:29:18;-7.70;99.90
16814;DHT22;8524;57.650;11.926;2024-01-06T11:32:17;-7.60;99.90
16814;DHT22;8524;57.650;11.926;2024-01-06T11:34:48;-7.60;99.90
16814;DHT22;8524;57.650;11.926;2024-01-06T11:37:18;-7.70;99.90
16814;DHT22;8524;57.650;11.926;2024-01-06T11:39:45;-7.70;99.90
16814;DHT22;8524;57.650;11.926;2024-01-06T11:42:12;-7.60;99.90
16814;DHT22;8524;57.650;11.926;2024-01-06T11:44:39;-7.60;99.90
16814;DHT22;8524;57.650;11.926;2024-01-06T11:47:06;-7.40;99.90
16814;DHT22;8524;57.650;11.926;2024-01-06T11:49:36;-7.40;99.90
16814;DHT22;8524;57.650;11.926;2024-01-06T11:52:03;-7.40;99.90
16814;DHT22;8524;57.650;11.926;2024-01-06T11:54:30;-7.40;99.90
16814;DHT22;8524;57.650;11.926;2024-01-06T11:56:57;-7.30;99.90
16814;DHT22;8524;57.650;11.926;2024-01-06T11:59:24;-7.30;99.90
16814;DHT22;8524;57.650;11.926;2024-01-06T12:01:51;-7.30;99.90
16814;DHT22;8524;57.650;11.926;2024-01-06T12:04:18;-7.20;99.90
16814;DHT22;8524;57.650;11.926;2024-01-06T12:06:49;-7.30;99.90
16814;DHT22;8524;57.650;11.926;2024-01-06T12:09:17;-7.00;99.90
16814;DHT22;8524;57.650;11.926;2024-01-06T12:11:45;-7.00;99.90
16814;DHT22;8524;57.650;11.926;2024-01-06T12:14:12;-7.00;99.90
16814;DHT22;8524;57.650;11.926;2024-01-06T12:16:39;-7.00;99.90
16814;DHT22;8524;57.650;11.926;2024-01-06T12:19:06;-7.10;99.90
16814;DHT22;8524;57.650;11.926;2024-01-06T12:21:33;-6.90;99.90
16814;DHT22;8524;57.650;11.926;2024-01-06T12:24:16;-6.90;99.90
16814;DHT22;8524;57.650;11.926;2024-01-06T12:26:44;-6.90;99.90
16814;DHT22;8524;57.650;11.926;2024-01-06T12:29:11;-6.70;99.90
16814;DHT22;8524;57.650;11.926;2024-01-06T12:31:39;-6.80;99.90
16814;DHT22;8524;57.650;11.926;2024-01-06T12:34:06;-6.90;99.90
16814;DHT22;8524;57.650;11.926;2024-01-06T12:36:33;-7.00;99.90
16814;DHT22;8524;57.650;11.926;2024-01-06T12:39:00;-7.20;99.90
16814;DHT22;8524;57.650;11.926;2024-01-06T12:41:29;-7.20;99.90
16814;DHT22;8524;57.650;11.926;2024-01-06T12:43:56;-7.20;99.90
16814;DHT22;8524;57.650;11.926;2024-01-06T12:46:22;-7.20;99.90
16814;DHT22;8524;57.650;11.926;2024-01-06T12:48:49;-7.20;99.90
16814;DHT22;8524;57.650;11.926;2024-01-06T12:51:16;-7.30;99.90
16814;DHT22;8524;57.650;11.926;2024-01-06T12:53:43;-7.20;99.90
16814;DHT22;8524;57.650;11.926;2024-01-06T12:56:10;-7.30;99.90
16814;DHT22;8524;57.650;11.926;2024-01-06T12:58:38;-7.20;99.90
16814;DHT22;8524;57.650;11.926;2024-01-06T13:01:05;-7.30;99.90
16814;DHT22;8524;57.650;11.926;2024-01-06T13:03:32;-7.30;99.90
16814;DHT22;8524;57.650;11.926;2024-01-06T13:05:59;-7.20;99.90
16814;DHT22;8524;57.650;11.926;2024-01-06T13:08:27;-7.20;99.90
16814;DHT22;8524;57.650;11.926;2024-01-06T13:10:54;-7.20;99.90
16814;DHT22;8524;57.650;11.926;2024-01-06T13:13:21;-7.20;99.90
16814;DHT22;8524;57.650;11.926;2024-01-06T13:15:50;-7.30;99.90
16814;DHT22;8524;57.650;11.926;2024-01-06T13:18:16;-7.20;99.90
16814;DHT22;8524;57.650;11.926;2024-01-06T13:20:43;-7.30;99.90
16814;DHT22;8524;57.650;11.926;2024-01-06T13:23:11;-7.20;99.90
16814;DHT22;8524;57.650;11.926;2024-01-06T13:25:38;-7.30;99.90
16814;DHT22;8524;57.650;11.926;2024-01-06T13:28:06;-7.40;99.90
16814;DHT22;8524;57.650;11.926;2024-01-06T13:30:34;-7.40;99.90
16814;DHT22;8524;57.650;11.926;2024-01-06T13:33:02;-7.40;99.90
16814;DHT22;8524;57.650;11.926;2024-01-06T13:35:29;-7.50;99.90
16814;DHT22;8524;57.650;11.926;2024-01-06T13:37:57;-7.40;99.90
16814;DHT22;8524;57.650;11.926;2024-01-06T13:40:23;-7.40;99.90
16814;DHT22;8524;57.650;11.926;2024-01-06T13:42:51;-7.40;99.90
16814;DHT22;8524;57.650;11.926;2024-01-06T13:45:18;-7.40;99.90
16814;DHT22;8524;57.650;11.926;2024-01-06T13:47:45;-7.50;99.90
16814;DHT22;8524;57.650;11.926;2024-01-06T13:50:14;-7.60;99.90
16814;DHT22;8524;57.650;11.926;2024-01-06T13:52:42;-7.50;99.90
16814;DHT22;8524;57.650;11.926;2024-01-06T13:55:09;-7.70;99.90
16814;DHT22;8524;57.650;11.926;2024-01-06T13:57:36;-7.80;99.90
16814;DHT22;8524;57.650;11.926;2024-01-06T14:00:07;-7.90;99.90
16814;DHT22;8524;57.650;11.926;2024-01-06T14:02:34;-7.90;99.90
16814;DHT22;8524;57.650;11.926;2024-01-06T14:05:01;-7.80;99.90
16814;DHT22;8524;57.650;11.926;2024-01-06T14:07:30;-7.80;99.90
16814;DHT22;8524;57.650;11.926;2024-01-06T14:09:56;-7.80;99.90
16814;DHT22;8524;57.650;11.926;2024-01-06T14:12:23;-7.80;99.90
16814;DHT22;8524;57.650;11.926;2024-01-06T14:14:50;-7.80;99.90
16814;DHT22;8524;57.650;11.926;2024-01-06T14:17:17;-7.80;99.90
16814;DHT22;8524;57.650;11.926;2024-01-06T14:19:44;-7.90;99.90
16814;DHT22;8524;57.650;11.926;2024-01-06T14:22:11;-7.90;99.90
16814;DHT22;8524;57.650;11.926;2024-01-06T14:24:41;-8.00;99.90
16814;DHT22;8524;57.650;11.926;2024-01-06T14:27:08;-8.00;99.90
16814;DHT22;8524;57.650;11.926;2024-01-06T14:29:35;-8.00;99.90
16814;DHT22;8524;57.650;11.926;2024-01-06T14:32:04;-8.00;99.90
16814;DHT22;8524;57.650;11.926;2024-01-06T14:34:30;-8.10;99.90
16814;DHT22;8524;57.650;11.926;2024-01-06T14:36:57;-8.30;99.90
16814;DHT22;8524;57.650;11.926;2024-01-06T14:39:24;-8.30;99.90
16814;DHT22;8524;57.650;11.926;2024-01-06T14:41:52;-8.40;99.90
16814;DHT22;8524;57.650;11.926;2024-01-06T14:44:19;-8.40;99.90
16814;DHT22;8524;57.650;11.926;2024-01-06T14:46:46;-8.50;99.90
16814;DHT22;8524;57.650;11.926;2024-01-06T14:49:13;-8.40;99.90
16814;DHT22;8524;57.650;11.926;2024-01-06T14:51:40;-8.50;99.90
16814;DHT22;8524;57.650;11.926;2024-01-06T14:54:06;-8.50;99.90
16814;DHT22;8524;57.650;11.926;2024-01-06T14:56:37;-8.60;99.90
16814;DHT22;8524;57.650;11.926;2024-01-06T14:59:06;-8.60;99.90
16814;DHT22;8524;57.650;11.926;2024-01-06T15:01:33;-8.70;99.90
16814;DHT22;8524;57.650;11.926;2024-01-06T15:04:00;-8.70;99.90
16814;DHT22;8524;57.650;11.926;2024-01-06T15:06:27;-8.70;99.90
16814;DHT22;8524;57.650;11.926;2024-01-06T15:08:54;-8.80;99.90
16814;DHT22;8524;57.650;11.926;2024-01-06T15:11:20;-8.90;99.90
16814;DHT22;8524;57.650;11.926;2024-01-06T15:13:48;-8.90;99.90
16814;DHT22;8524;57.650;11.926;2024-01-06T15:16:16;-9.00;99.90
16814;DHT22;8524;57.650;11.926;2024-01-06T15:18:43;-9.10;99.90
16814;DHT22;8524;57.650;11.926;2024-01-06T15:21:09;-9.10;99.90
16814;DHT22;8524;57.650;11.926;2024-01-06T15:23:36;-9.00;99.90